sensor_id;sensor_type;location;lat;lon;timestamp;pressure;altitude;pressure_sealevel;temperature;humidity
44481;BME280;30184;42.018;23.670;2023-05-24T00:00:25;91448.69;;;9.09;86.11
44481;BME280;30184;42.018;23.670;2023-05-24T00:02:57;91443.72;;;9.08;86.42
44481;BME280;30184;42.018;23.670;2023-05-24T00:05:26;91444.47;;;9.08;86.49
44481;BME280;30184;42.018;23.670;2023-05-24T00:07:57;91443.78;;;9.04;86.97
44481;BME280;30184;42.018;23.670;2023-05-24T00:10:26;91389.47;;;8.63;86.53
44481;BME280;30184;42.018;23.670;2023-05-24T00:12:56;91444.38;;;8.95;85.89
44481;BME280;30184;42.018;23.670;2023-05-24T00:15:25;91446.50;;;8.88;85.40
44481;BME280;30184;42.018;23.670;2023-05-24T00:17:54;91442.25;;;8.71;85.39
44481;BME280;30184;42.018;23.670;2023-05-24T00:20:24;91440.03;;;8.66;85.73
44481;BME280;30184;42.018;23.670;2023-05-24T00:22:53;91457.94;;;8.59;86.16
44481;BME280;30184;42.018;23.670;2023-05-24T00:25:23;91413.25;;;8.35;88.16
44481;BME280;30184;42.018;23.670;2023-05-24T00:27:52;91431.78;;;8.53;88.28
44481;BME280;30184;42.018;23.670;2023-05-24T00:30:21;91406.00;;;8.32;88.54
44481;BME280;30184;42.018;23.670;2023-05-24T00:32:50;91448.28;;;8.58;88.78
44481;BME280;30184;42.018;23.670;2023-05-24T00:35:19;91376.16;;;8.16;88.82
44481;BME280;30184;42.018;23.670;2023-05-24T00:37:50;91438.66;;;8.57;88.92
44481;BME280;30184;42.018;23.670;2023-05-24T00:40:19;91434.06;;;8.54;89.52
44481;BME280;30184;42.018;23.670;2023-05-24T00:42:50;91437.19;;;8.53;89.64
44481;BME280;30184;42.018;23.670;2023-05-24T00:45:19;91437.19;;;8.53;89.66
44481;BME280;30184;42.018;23.670;2023-05-24T00:47:48;91429.94;;;8.50;88.61
44481;BME280;30184;42.018;23.670;2023-05-24T00:50:17;91438.06;;;8.50;88.44
44481;BME280;30184;42.018;23.670;2023-05-24T00:52:50;91431.13;;;8.49;88.71
44481;BME280;30184;42.018;23.670;2023-05-24T00:55:19;91427.31;;;8.46;88.83
44481;BME280;30184;42.018;23.670;2023-05-24T00:57:49;91430.09;;;8.43;89.13
44481;BME280;30184;42.018;23.670;2023-05-24T01:00:19;91439.03;;;8.40;89.33
44481;BME280;30184;42.018;23.670;2023-05-24T01:02:49;91417.81;;;8.38;89.37
44481;BME280;30184;42.018;23.670;2023-05-24T01:05:18;91422.97;;;8.33;88.55
44481;BME280;30184;42.018;23.670;2023-05-24T01:08:00;91389.28;;;7.98;88.04
44481;BME280;30184;42.018;23.670;2023-05-24T01:10:39;91430.91;;;8.20;88.28
44481;BME280;30184;42.018;23.670;2023-05-24T01:13:20;91390.59;;;7.90;88.86
44481;BME280;30184;42.018;23.670;2023-05-24T01:15:55;91425.16;;;8.18;88.99
44481;BME280;30184;42.018;23.670;2023-05-24T01:18:30;91416.19;;;8.05;89.39
44481;BME280;30184;42.018;23.670;2023-05-24T01:21:15;91440.19;;;8.19;89.66
44481;BME280;30184;42.018;23.670;2023-05-24T01:23:54;91427.59;;;8.12;89.69
44481;BME280;30184;42.018;23.670;2023-05-24T01:26:34;91435.97;;;8.18;90.05
44481;BME280;30184;42.018;23.670;2023-05-24T01:29:07;91419.28;;;7.83;89.97
44481;BME280;30184;42.018;23.670;2023-05-24T01:31:37;91438.31;;;8.16;89.87
44481;BME280;30184;42.018;23.670;2023-05-24T01:34:07;91436.81;;;8.15;89.52
44481;BME280;30184;42.018;23.670;2023-05-24T01:36:36;91437.25;;;8.13;89.36
44481;BME280;30184;42.018;23.670;2023-05-24T01:39:05;91434.25;;;8.08;88.78
44481;BME280;30184;42.018;23.670;2023-05-24T01:41:38;91442.28;;;7.92;88.47
44481;BME280;30184;42.018;23.670;2023-05-24T01:44:15;91438.25;;;8.00;88.47
44481;BME280;30184;42.018;23.670;2023-05-24T01:46:52;91429.91;;;7.94;88.37
44481;BME280;30184;42.018;23.670;2023-05-24T01:49:30;91426.84;;;7.92;88.86
44481;BME280;30184;42.018;23.670;2023-05-24T01:52:02;91424.91;;;7.93;89.29
44481;BME280;30184;42.018;23.670;2023-05-24T01:54:37;91425.72;;;7.90;89.99
44481;BME280;30184;42.018;23.670;2023-05-24T01:57:09;91421.94;;;7.87;90.13
44481;BME280;30184;42.018;23.670;2023-05-24T01:59:42;91425.47;;;7.84;90.45
44481;BME280;30184;42.018;23.670;2023-05-24T02:02:13;91428.97;;;7.81;90.46
44481;BME280;30184;42.018;23.670;2023-05-24T02:04:42;91423.66;;;7.77;90.31
44481;BME280;30184;42.018;23.670;2023-05-24T02:07:12;91431.28;;;7.82;90.25
44481;BME280;30184;42.018;23.670;2023-05-24T02:09:41;91425.19;;;7.78;90.76
44481;BME280;30184;42.018;23.670;2023-05-24T02:12:11;91431.69;;;7.81;90.69
44481;BME280;30184;42.018;23.670;2023-05-24T02:14:41;91432.44;;;7.81;90.75
44481;BME280;30184;42.018;23.670;2023-05-24T02:17:11;91430.91;;;7.80;90.73
44481;BME280;30184;42.018;23.670;2023-05-24T02:19:41;91434.78;;;7.79;90.72
44481;BME280;30184;42.018;23.670;2023-05-24T02:22:10;91434.94;;;7.72;89.30
44481;BME280;30184;42.018;23.670;2023-05-24T02:24:40;91428.19;;;7.61;89.21
44481;BME280;30184;42.018;23.670;2023-05-24T02:27:10;91434.03;;;7.59;89.63
44481;BME280;30184;42.018;23.670;2023-05-24T02:29:41;91442.13;;;7.59;89.91
44481;BME280;30184;42.018;23.670;2023-05-24T02:32:10;91427.66;;;7.49;90.21
44481;BME280;30184;42.018;23.670;2023-05-24T02:34:39;91440.59;;;7.58;90.54
44481;BME280;30184;42.018;23.670;2023-05-24T02:37:09;91422.88;;;7.57;90.73
44481;BME280;30184;42.018;23.670;2023-05-24T02:39:41;91436.78;;;7.56;91.15
44481;BME280;30184;42.018;23.670;2023-05-24T02:42:10;91434.50;;;7.54;91.23
44481;BME280;30184;42.018;23.670;2023-05-24T02:44:41;91455.06;;;7.48;90.71
44481;BME280;30184;42.018;23.670;2023-05-24T02:47:14;91436.97;;;7.45;90.73
44481;BME280;30184;42.018;23.670;2023-05-24T02:49:43;91438.91;;;7.44;91.03
44481;BME280;30184;42.018;23.670;2023-05-24T02:52:13;91434.28;;;7.45;91.10
44481;BME280;30184;42.018;23.670;2023-05-24T02:54:42;91439.25;;;7.46;91.16
44481;BME280;30184;42.018;23.670;2023-05-24T02:57:12;91445.00;;;7.48;91.36
44481;BME280;30184;42.018;23.670;2023-05-24T02:59:44;91440.44;;;7.45;91.52
44481;BME280;30184;42.018;23.670;2023-05-24T03:02:13;91420.28;;;7.30;91.42
44481;BME280;30184;42.018;23.670;2023-05-24T03:04:44;91439.72;;;7.41;91.66
44481;BME280;30184;42.018;23.670;2023-05-24T03:07:13;91437.03;;;7.41;91.82
44481;BME280;30184;42.018;23.670;2023-05-24T03:09:42;91430.88;;;7.41;91.99
44481;BME280;30184;42.018;23.670;2023-05-24T03:12:12;91432.38;;;7.42;92.01
44481;BME280;30184;42.018;23.670;2023-05-24T03:14:41;91408.00;;;7.26;92.13
44481;BME280;30184;42.018;23.670;2023-05-24T03:17:12;91429.28;;;7.43;91.94
44481;BME280;30184;42.018;23.670;2023-05-24T03:19:41;91434.28;;;7.45;92.07
44481;BME280;30184;42.018;23.670;2023-05-24T03:22:12;91433.09;;;7.46;91.98
44481;BME280;30184;42.018;23.670;2023-05-24T03:24:41;91432.34;;;7.45;92.12
44481;BME280;30184;42.018;23.670;2023-05-24T03:27:11;91439.25;;;7.46;91.98
44481;BME280;30184;42.018;23.670;2023-05-24T03:29:41;91434.97;;;7.49;91.90
44481;BME280;30184;42.018;23.670;2023-05-24T03:32:13;91443.41;;;7.51;91.85
44481;BME280;30184;42.018;23.670;2023-05-24T03:34:42;91429.91;;;7.51;91.65
44481;BME280;30184;42.018;23.670;2023-05-24T03:37:11;91428.72;;;7.52;91.67
44481;BME280;30184;42.018;23.670;2023-05-24T03:39:42;91434.13;;;7.52;90.90
44481;BME280;30184;42.018;23.670;2023-05-24T03:42:29;91437.53;;;7.56;91.03
44481;BME280;30184;42.018;23.670;2023-05-24T03:44:58;91437.50;;;7.60;91.14
44481;BME280;30184;42.018;23.670;2023-05-24T03:47:28;91331.50;;;6.93;91.08
44481;BME280;30184;42.018;23.670;2023-05-24T03:49:58;91445.91;;;7.62;91.61
44481;BME280;30184;42.018;23.670;2023-05-24T03:52:28;91371.09;;;7.19;91.49
44481;BME280;30184;42.018;23.670;2023-05-24T03:54:57;91461.63;;;7.47;91.94
44481;BME280;30184;42.018;23.670;2023-05-24T03:57:27;91435.75;;;7.69;91.90
44481;BME280;30184;42.018;23.670;2023-05-24T03:59:56;91436.81;;;7.75;91.83
44481;BME280;30184;42.018;23.670;2023-05-24T04:02:28;91447.53;;;7.79;91.76
44481;BME280;30184;42.018;23.670;2023-05-24T04:04:58;91453.69;;;7.79;91.73
44481;BME280;30184;42.018;23.670;2023-05-24T04:07:27;91451.66;;;7.87;91.78
44481;BME280;30184;42.018;23.670;2023-05-24T04:09:56;91448.88;;;7.91;90.85
44481;BME280;30184;42.018;23.670;2023-05-24T04:12:26;91446.09;;;7.94;90.42
44481;BME280;30184;42.018;23.670;2023-05-24T04:14:55;91447.44;;;8.06;90.43
44481;BME280;30184;42.018;23.670;2023-05-24T04:17:24;91449.25;;;8.32;90.53
44481;BME280;30184;42.018;23.670;2023-05-24T04:19:55;91454.91;;;8.74;88.10
44481;BME280;30184;42.018;23.670;2023-05-24T04:22:24;91434.66;;;9.14;85.26
44481;BME280;30184;42.018;23.670;2023-05-24T04:24:54;91427.94;;;9.51;82.43
44481;BME280;30184;42.018;23.670;2023-05-24T04:27:23;91450.38;;;9.97;82.00
44481;BME280;30184;42.018;23.670;2023-05-24T04:29:53;91450.72;;;10.28;80.46
44481;BME280;30184;42.018;23.670;2023-05-24T04:32:22;91445.47;;;10.62;79.65
44481;BME280;30184;42.018;23.670;2023-05-24T04:34:52;91414.66;;;10.56;78.47
44481;BME280;30184;42.018;23.670;2023-05-24T04:37:24;91444.63;;;11.16;77.30
44481;BME280;30184;42.018;23.670;2023-05-24T04:39:54;91433.63;;;11.32;76.53
44481;BME280;30184;42.018;23.670;2023-05-24T04:42:23;91437.63;;;11.66;75.21
44481;BME280;30184;42.018;23.670;2023-05-24T04:44:54;91434.19;;;11.87;74.68
44481;BME280;30184;42.018;23.670;2023-05-24T04:47:23;91443.41;;;12.02;73.84
44481;BME280;30184;42.018;23.670;2023-05-24T04:49:52;91469.03;;;12.36;73.23
44481;BME280;30184;42.018;23.670;2023-05-24T04:52:21;91434.16;;;12.65;72.33
44481;BME280;30184;42.018;23.670;2023-05-24T04:54:52;91425.50;;;12.88;69.69
44481;BME280;30184;42.018;23.670;2023-05-24T04:57:22;91430.97;;;13.19;68.50
44481;BME280;30184;42.018;23.670;2023-05-24T04:59:51;91424.06;;;13.45;67.48
44481;BME280;30184;42.018;23.670;2023-05-24T05:02:21;91433.69;;;13.68;67.28
44481;BME280;30184;42.018;23.670;2023-05-24T05:04:50;91415.84;;;13.86;66.50
44481;BME280;30184;42.018;23.670;2023-05-24T05:07:19;91419.78;;;14.12;66.05
44481;BME280;30184;42.018;23.670;2023-05-24T05:09:49;91352.97;;;13.98;64.81
44481;BME280;30184;42.018;23.670;2023-05-24T05:12:19;91402.63;;;14.57;63.13
44481;BME280;30184;42.018;23.670;2023-05-24T05:14:48;91408.19;;;14.90;63.42
44481;BME280;30184;42.018;23.670;2023-05-24T05:17:17;91403.25;;;15.12;62.06
44481;BME280;30184;42.018;23.670;2023-05-24T05:19:47;91410.41;;;15.43;61.84
44481;BME280;30184;42.018;23.670;2023-05-24T05:22:16;91412.78;;;15.59;61.30
44481;BME280;30184;42.018;23.670;2023-05-24T05:24:45;91364.50;;;15.56;60.75
44481;BME280;30184;42.018;23.670;2023-05-24T05:27:14;91400.00;;;15.65;60.67
44481;BME280;30184;42.018;23.670;2023-05-24T05:29:45;91410.47;;;15.90;60.08
44481;BME280;30184;42.018;23.670;2023-05-24T05:32:14;91406.16;;;15.98;59.74
44481;BME280;30184;42.018;23.670;2023-05-24T05:34:44;91396.94;;;16.11;58.79
44481;BME280;30184;42.018;23.670;2023-05-24T05:37:13;91398.56;;;16.17;58.55
44481;BME280;30184;42.018;23.670;2023-05-24T05:39:42;91399.84;;;16.07;59.72
44481;BME280;30184;42.018;23.670;2023-05-24T05:42:11;91403.94;;;16.12;59.47
44481;BME280;30184;42.018;23.670;2023-05-24T05:44:41;91393.84;;;16.18;58.72
44481;BME280;30184;42.018;23.670;2023-05-24T05:47:12;91406.81;;;16.32;59.13
44481;BME280;30184;42.018;23.670;2023-05-24T05:49:41;91400.41;;;16.35;57.82
44481;BME280;30184;42.018;23.670;2023-05-24T05:52:10;91404.34;;;16.34;56.00
44481;BME280;30184;42.018;23.670;2023-05-24T05:54:39;91394.81;;;16.29;56.22
44481;BME280;30184;42.018;23.670;2023-05-24T05:57:08;91399.41;;;16.23;56.20
44481;BME280;30184;42.018;23.670;2023-05-24T05:59:38;91394.78;;;16.15;55.92
44481;BME280;30184;42.018;23.670;2023-05-24T06:02:07;91393.63;;;16.07;54.91
44481;BME280;30184;42.018;23.670;2023-05-24T06:04:38;91394.28;;;16.01;55.11
44481;BME280;30184;42.018;23.670;2023-05-24T06:07:07;91403.72;;;16.00;55.52
44481;BME280;30184;42.018;23.670;2023-05-24T06:09:36;91400.50;;;16.02;54.80
44481;BME280;30184;42.018;23.670;2023-05-24T06:12:05;91402.50;;;16.01;54.78
44481;BME280;30184;42.018;23.670;2023-05-24T06:14:34;91405.22;;;16.01;57.13
44481;BME280;30184;42.018;23.670;2023-05-24T06:17:05;91394.09;;;16.05;59.16
44481;BME280;30184;42.018;23.670;2023-05-24T06:19:34;91402.75;;;16.03;59.21
44481;BME280;30184;42.018;23.670;2023-05-24T06:22:05;91422.28;;;15.96;59.04
44481;BME280;30184;42.018;23.670;2023-05-24T06:24:34;91414.31;;;15.84;60.17
44481;BME280;30184;42.018;23.670;2023-05-24T06:27:04;91380.81;;;15.89;60.50
44481;BME280;30184;42.018;23.670;2023-05-24T06:29:33;91403.34;;;16.08;61.55
44481;BME280;30184;42.018;23.670;2023-05-24T06:32:03;91406.31;;;16.19;60.01
44481;BME280;30184;42.018;23.670;2023-05-24T06:34:32;91407.16;;;16.25;58.96
44481;BME280;30184;42.018;23.670;2023-05-24T06:37:02;91402.84;;;16.33;60.98
44481;BME280;30184;42.018;23.670;2023-05-24T06:39:32;91401.84;;;16.45;57.25
44481;BME280;30184;42.018;23.670;2023-05-24T06:42:02;91405.41;;;16.51;57.30
44481;BME280;30184;42.018;23.670;2023-05-24T06:44:36;91399.84;;;16.60;57.15
44481;BME280;30184;42.018;23.670;2023-05-24T06:47:05;91387.63;;;16.70;57.44
44481;BME280;30184;42.018;23.670;2023-05-24T06:49:36;91391.78;;;16.81;57.37
44481;BME280;30184;42.018;23.670;2023-05-24T06:52:05;91386.50;;;16.92;55.30
44481;BME280;30184;42.018;23.670;2023-05-24T06:54:36;91389.31;;;16.97;53.61
44481;BME280;30184;42.018;23.670;2023-05-24T06:57:06;91382.97;;;17.06;53.94
44481;BME280;30184;42.018;23.670;2023-05-24T06:59:35;91372.41;;;17.13;53.17
44481;BME280;30184;42.018;23.670;2023-05-24T07:02:04;91357.72;;;17.16;53.12
44481;BME280;30184;42.018;23.670;2023-05-24T07:04:33;91366.84;;;17.43;52.59
44481;BME280;30184;42.018;23.670;2023-05-24T07:07:03;91199.97;;;16.01;51.11
44481;BME280;30184;42.018;23.670;2023-05-24T07:09:32;91367.75;;;17.69;50.99
44481;BME280;30184;42.018;23.670;2023-05-24T07:12:03;91362.19;;;17.84;51.18
44481;BME280;30184;42.018;23.670;2023-05-24T07:14:34;91360.88;;;18.00;51.17
44481;BME280;30184;42.018;23.670;2023-05-24T07:17:03;91311.00;;;17.81;52.12
44481;BME280;30184;42.018;23.670;2023-05-24T07:19:33;91355.78;;;18.33;52.57
44481;BME280;30184;42.018;23.670;2023-05-24T07:22:02;91355.88;;;18.44;50.46
44481;BME280;30184;42.018;23.670;2023-05-24T07:24:32;91348.53;;;18.56;50.30
44481;BME280;30184;42.018;23.670;2023-05-24T07:27:03;91352.66;;;18.66;48.83
44481;BME280;30184;42.018;23.670;2023-05-24T07:29:32;91350.97;;;18.74;48.22
44481;BME280;30184;42.018;23.670;2023-05-24T07:32:02;91356.59;;;18.85;48.09
44481;BME280;30184;42.018;23.670;2023-05-24T07:34:31;91355.72;;;18.99;47.18
44481;BME280;30184;42.018;23.670;2023-05-24T07:37:01;91340.78;;;19.12;45.54
44481;BME280;30184;42.018;23.670;2023-05-24T07:39:30;91337.16;;;19.26;46.20
44481;BME280;30184;42.018;23.670;2023-05-24T07:41:59;91339.31;;;19.48;47.06
44481;BME280;30184;42.018;23.670;2023-05-24T07:44:30;91343.69;;;19.65;46.68
44481;BME280;30184;42.018;23.670;2023-05-24T07:46:59;91377.03;;;19.73;43.27
44481;BME280;30184;42.018;23.670;2023-05-24T07:49:29;91339.06;;;19.83;44.46
44481;BME280;30184;42.018;23.670;2023-05-24T07:51:58;91330.81;;;19.94;44.43
44481;BME280;30184;42.018;23.670;2023-05-24T07:54:28;91325.13;;;20.08;44.16
44481;BME280;30184;42.018;23.670;2023-05-24T07:56:57;91235.06;;;19.55;43.84
44481;BME280;30184;42.018;23.670;2023-05-24T07:59:26;91313.91;;;20.23;44.19
44481;BME280;30184;42.018;23.670;2023-05-24T08:01:57;91325.78;;;20.52;42.95
44481;BME280;30184;42.018;23.670;2023-05-24T08:04:30;91315.53;;;20.58;43.24
44481;BME280;30184;42.018;23.670;2023-05-24T08:07:00;91299.00;;;20.69;41.75
44481;BME280;30184;42.018;23.670;2023-05-24T08:09:30;91317.56;;;20.74;40.78
44481;BME280;30184;42.018;23.670;2023-05-24T08:12:03;91303.28;;;20.86;41.30
44481;BME280;30184;42.018;23.670;2023-05-24T08:14:32;91316.59;;;21.10;39.39
44481;BME280;30184;42.018;23.670;2023-05-24T08:17:03;91310.34;;;21.27;38.25
44481;BME280;30184;42.018;23.670;2023-05-24T08:19:32;91295.28;;;21.28;37.50
44481;BME280;30184;42.018;23.670;2023-05-24T08:22:02;91307.78;;;21.51;37.72
44481;BME280;30184;42.018;23.670;2023-05-24T08:24:32;91301.78;;;21.58;36.00
44481;BME280;30184;42.018;23.670;2023-05-24T08:27:02;91299.50;;;21.62;35.56
44481;BME280;30184;42.018;23.670;2023-05-24T08:29:31;91257.38;;;21.45;34.62
44481;BME280;30184;42.018;23.670;2023-05-24T08:32:00;91300.97;;;21.80;33.60
44481;BME280;30184;42.018;23.670;2023-05-24T08:34:31;91298.91;;;22.03;34.62
44481;BME280;30184;42.018;23.670;2023-05-24T08:37:00;91307.69;;;22.01;34.68
44481;BME280;30184;42.018;23.670;2023-05-24T08:39:29;91302.59;;;22.22;33.03
44481;BME280;30184;42.018;23.670;2023-05-24T08:41:59;91303.56;;;22.30;32.07
44481;BME280;30184;42.018;23.670;2023-05-24T08:44:35;91298.72;;;22.47;31.61
44481;BME280;30184;42.018;23.670;2023-05-24T08:47:07;91290.34;;;22.58;32.34
44481;BME280;30184;42.018;23.670;2023-05-24T08:49:40;91324.41;;;22.89;32.03
44481;BME280;30184;42.018;23.670;2023-05-24T08:52:11;91300.44;;;22.97;31.28
44481;BME280;30184;42.018;23.670;2023-05-24T08:54:41;91302.50;;;23.21;31.02
44481;BME280;30184;42.018;23.670;2023-05-24T08:57:11;91305.56;;;23.47;31.92
44481;BME280;30184;42.018;23.670;2023-05-24T08:59:42;91319.91;;;23.45;30.25
44481;BME280;30184;42.018;23.670;2023-05-24T09:02:13;91294.53;;;23.41;30.25
44481;BME280;30184;42.018;23.670;2023-05-24T09:04:45;91246.81;;;23.00;30.75
44481;BME280;30184;42.018;23.670;2023-05-24T09:07:17;91318.41;;;23.50;30.98
44481;BME280;30184;42.018;23.670;2023-05-24T09:09:54;91291.56;;;23.64;30.87
44481;BME280;30184;42.018;23.670;2023-05-24T09:12:26;91292.97;;;23.76;30.87
44481;BME280;30184;42.018;23.670;2023-05-24T09:15:03;91290.38;;;23.84;30.32
44481;BME280;30184;42.018;23.670;2023-05-24T09:17:33;91309.31;;;23.79;29.81
44481;BME280;30184;42.018;23.670;2023-05-24T09:20:06;91311.03;;;23.58;30.12
44481;BME280;30184;42.018;23.670;2023-05-24T09:22:37;91316.69;;;23.41;30.38
44481;BME280;30184;42.018;23.670;2023-05-24T09:25:12;91309.72;;;23.35;30.20
44481;BME280;30184;42.018;23.670;2023-05-24T09:27:48;91324.31;;;23.35;30.31
44481;BME280;30184;42.018;23.670;2023-05-24T09:30:26;91307.69;;;23.35;30.79
44481;BME280;30184;42.018;23.670;2023-05-24T09:32:57;91309.72;;;23.35;31.38
44481;BME280;30184;42.018;23.670;2023-05-24T09:35:30;91308.81;;;23.21;31.90
44481;BME280;30184;42.018;23.670;2023-05-24T09:37:59;91310.19;;;23.03;31.02
44481;BME280;30184;42.018;23.670;2023-05-24T09:40:29;91323.34;;;22.97;31.80
44481;BME280;30184;42.018;23.670;2023-05-24T09:43:04;91312.63;;;22.71;31.85
44481;BME280;30184;42.018;23.670;2023-05-24T09:45:44;91298.09;;;22.65;32.42
44481;BME280;30184;42.018;23.670;2023-05-24T09:48:15;91106.13;;;21.27;31.84
44481;BME280;30184;42.018;23.670;2023-05-24T09:50:57;91310.94;;;22.63;31.85
44481;BME280;30184;42.018;23.670;2023-05-24T09:53:27;91307.97;;;22.55;31.92
44481;BME280;30184;42.018;23.670;2023-05-24T09:55:56;91317.06;;;22.50;32.52
44481;BME280;30184;42.018;23.670;2023-05-24T09:58:28;91271.72;;;22.18;33.25
44481;BME280;30184;42.018;23.670;2023-05-24T10:01:06;91337.47;;;22.36;34.04
44481;BME280;30184;42.018;23.670;2023-05-24T10:03:37;91331.75;;;22.23;33.92
44481;BME280;30184;42.018;23.670;2023-05-24T10:06:09;91324.25;;;22.12;33.89
44481;BME280;30184;42.018;23.670;2023-05-24T10:08:41;91271.88;;;21.62;34.22
44481;BME280;30184;42.018;23.670;2023-05-24T10:11:10;91326.28;;;21.89;34.62
44481;BME280;30184;42.018;23.670;2023-05-24T10:13:40;91246.09;;;21.37;35.55
44481;BME280;30184;42.018;23.670;2023-05-24T10:16:11;91324.81;;;21.83;35.27
44481;BME280;30184;42.018;23.670;2023-05-24T10:18:40;91323.06;;;21.80;35.35
44481;BME280;30184;42.018;23.670;2023-05-24T10:21:11;91317.81;;;21.76;35.06
44481;BME280;30184;42.018;23.670;2023-05-24T10:23:43;91317.78;;;21.82;35.33
44481;BME280;30184;42.018;23.670;2023-05-24T10:26:13;91327.81;;;21.90;34.84
44481;BME280;30184;42.018;23.670;2023-05-24T10:28:45;91251.81;;;21.56;35.07
44481;BME280;30184;42.018;23.670;2023-05-24T10:31:18;91309.47;;;22.04;35.55
44481;BME280;30184;42.018;23.670;2023-05-24T10:33:50;91318.94;;;22.20;35.08
44481;BME280;30184;42.018;23.670;2023-05-24T10:36:22;91316.63;;;22.29;34.57
44481;BME280;30184;42.018;23.670;2023-05-24T10:38:53;91315.56;;;22.44;35.13
44481;BME280;30184;42.018;23.670;2023-05-24T10:41:24;91315.25;;;22.58;35.25
44481;BME280;30184;42.018;23.670;2023-05-24T10:43:56;91231.78;;;22.13;35.42
44481;BME280;30184;42.018;23.670;2023-05-24T10:46:34;91289.03;;;22.70;34.56
44481;BME280;30184;42.018;23.670;2023-05-24T10:49:05;91314.59;;;23.18;34.27
44481;BME280;30184;42.018;23.670;2023-05-24T10:51:36;91302.16;;;23.35;32.77
44481;BME280;30184;42.018;23.670;2023-05-24T10:54:10;91288.53;;;23.08;32.59
44481;BME280;30184;42.018;23.670;2023-05-24T10:56:41;91306.84;;;23.16;32.79
44481;BME280;30184;42.018;23.670;2023-05-24T10:59:23;91290.50;;;23.42;32.08
44481;BME280;30184;42.018;23.670;2023-05-24T11:01:56;91297.00;;;23.51;32.54
44481;BME280;30184;42.018;23.670;2023-05-24T11:04:29;91294.91;;;23.57;31.89
44481;BME280;30184;42.018;23.670;2023-05-24T11:07:05;91227.94;;;23.04;31.93
44481;BME280;30184;42.018;23.670;2023-05-24T11:09:37;91301.09;;;23.38;31.81
44481;BME280;30184;42.018;23.670;2023-05-24T11:12:16;91302.25;;;23.24;32.47
44481;BME280;30184;42.018;23.670;2023-05-24T11:14:47;91309.13;;;23.12;32.22
44481;BME280;30184;42.018;23.670;2023-05-24T11:17:19;91308.88;;;23.10;32.01
44481;BME280;30184;42.018;23.670;2023-05-24T11:19:49;91310.19;;;23.03;33.63
44481;BME280;30184;42.018;23.670;2023-05-24T11:22:22;91311.97;;;23.01;33.64
44481;BME280;30184;42.018;23.670;2023-05-24T11:27:21;91309.59;;;22.81;33.37
44481;BME280;30184;42.018;23.670;2023-05-24T11:29:52;91314.94;;;22.67;34.07
44481;BME280;30184;42.018;23.670;2023-05-24T11:32:22;91315.72;;;22.62;34.42
44481;BME280;30184;42.018;23.670;2023-05-24T11:34:52;91313.03;;;22.51;34.28
44481;BME280;30184;42.018;23.670;2023-05-24T11:37:24;91153.06;;;21.21;34.27
44481;BME280;30184;42.018;23.670;2023-05-24T11:39:58;91319.38;;;22.35;34.98
44481;BME280;30184;42.018;23.670;2023-05-24T11:42:33;91277.78;;;22.11;33.79
44481;BME280;30184;42.018;23.670;2023-05-24T11:45:07;91312.53;;;22.47;34.74
44481;BME280;30184;42.018;23.670;2023-05-24T11:47:37;91315.25;;;22.58;34.28
44481;BME280;30184;42.018;23.670;2023-05-24T11:50:07;91309.88;;;22.71;34.32
44481;BME280;30184;42.018;23.670;2023-05-24T11:52:39;91303.81;;;22.73;33.26
44481;BME280;30184;42.018;23.670;2023-05-24T11:55:10;91302.84;;;22.70;34.03
44481;BME280;30184;42.018;23.670;2023-05-24T11:57:48;91300.50;;;22.86;33.79
44481;BME280;30184;42.018;23.670;2023-05-24T12:00:24;91317.56;;;22.90;33.67
44481;BME280;30184;42.018;23.670;2023-05-24T12:02:55;91295.69;;;22.92;34.05
44481;BME280;30184;42.018;23.670;2023-05-24T12:05:28;91218.56;;;22.42;33.74
44481;BME280;30184;42.018;23.670;2023-05-24T12:08:04;91140.75;;;21.85;34.16
44481;BME280;30184;42.018;23.670;2023-05-24T12:10:36;91296.53;;;23.11;34.92
44481;BME280;30184;42.018;23.670;2023-05-24T12:13:16;91291.13;;;23.30;34.87
44481;BME280;30184;42.018;23.670;2023-05-24T12:15:48;91263.41;;;23.05;34.60
44481;BME280;30184;42.018;23.670;2023-05-24T12:18:21;91289.75;;;23.42;34.25
44481;BME280;30184;42.018;23.670;2023-05-24T12:20:51;91287.69;;;23.48;34.52
44481;BME280;30184;42.018;23.670;2023-05-24T12:23:23;91289.25;;;23.43;33.51
44481;BME280;30184;42.018;23.670;2023-05-24T12:25:57;91273.19;;;23.36;33.47
44481;BME280;30184;42.018;23.670;2023-05-24T12:28:27;91283.16;;;23.45;33.32
44481;BME280;30184;42.018;23.670;2023-05-24T12:31:02;91289.44;;;23.51;33.40
44481;BME280;30184;42.018;23.670;2023-05-24T12:33:32;91278.44;;;23.70;34.37
44481;BME280;30184;42.018;23.670;2023-05-24T12:36:02;91276.59;;;23.78;33.60
44481;BME280;30184;42.018;23.670;2023-05-24T12:38:33;91279.63;;;23.74;33.93
44481;BME280;30184;42.018;23.670;2023-05-24T12:41:02;91276.88;;;23.74;34.01
44481;BME280;30184;42.018;23.670;2023-05-24T12:43:39;91286.91;;;23.77;33.88
44481;BME280;30184;42.018;23.670;2023-05-24T12:46:08;91282.72;;;23.71;34.43
44481;BME280;30184;42.018;23.670;2023-05-24T12:48:38;91282.47;;;23.69;34.22
44481;BME280;30184;42.018;23.670;2023-05-24T12:51:07;91270.91;;;23.65;33.13
44481;BME280;30184;42.018;23.670;2023-05-24T12:53:39;91267.22;;;23.57;34.04
44481;BME280;30184;42.018;23.670;2023-05-24T12:56:10;91274.34;;;23.47;34.32
44481;BME280;30184;42.018;23.670;2023-05-24T12:58:39;91271.50;;;23.28;34.95
44481;BME280;30184;42.018;23.670;2023-05-24T13:01:08;91281.97;;;23.11;36.25
44481;BME280;30184;42.018;23.670;2023-05-24T13:03:38;91225.91;;;22.69;36.42
44481;BME280;30184;42.018;23.670;2023-05-24T13:06:08;91278.75;;;23.01;36.54
44481;BME280;30184;42.018;23.670;2023-05-24T13:08:39;91287.19;;;22.84;35.63
44481;BME280;30184;42.018;23.670;2023-05-24T13:11:09;91170.09;;;21.88;35.51
44481;BME280;30184;42.018;23.670;2023-05-24T13:13:38;91272.38;;;22.82;35.21